Accueil
METAR-TAF:

METAR-TAF

Aéroports :

Aéroport international d'Adana-Sakirpasa

Adana, Turquie

latitude: 36-59N, longitude: 035-18E, altitude: 20 m

Observation

Le bulletin a été fait il y a 21 minutes, à 08:20 UTC
Vent 17 kt de sud/sud-ouest, variant entre sud et sud-ouest
Température 23°C
Humidité 50%
Pression 1013 hPa
Visibilité 10 km ou plus
Nuages épars à une hauteur de 3500 ft

METAR: LTAF 290820Z 20017KT 170V230 9999 SCT035 23/12 Q1013 NOSIG RMK RWY23 22018KT

Heure: 11:41 (08:41 UTC)


TAF: absent

Observations et prévisions météorologiques de plus de 4000 aéroports (messages METAR et TAF).

Les stations disponibles sont représentées par des disques jaunes et rouges sur la carte.

Passer la souris dessus pour voir le nom de la station.

Cliquer dessus pour voir les observations et prévisions météorologiques.

Pour changer de carte: cliquez sur les boutons verts avec une croix noire pour zoomer, sur le bouton vert avec un tiret pour effectuer un zoom arrière, ou sur les flèches vertes pour les cartes adjacentes.


METAR-TAF: